Portada
METAR-TAF:

METAR-TAF

Aeropuertos :

Kaiser Lake Ozark, Misuri, Estados Unidos

latitud: 38-06N, longitud: 092-33W, altitud: 265 m

Observación

El informe se hizo hace 47 minutos, a las 07:56 UTC
Viento calma
Temperatura 19°C
Humedad 100%
Presión 1016 hPa
Visibilidad: 16.1 km
Cielo despejado

METAR: KAIZ 060756Z AUTO 00000KT 10SM CLR 19/19 A2999 RMK AO2 SLP147 T01890189

Hora: 03:43 (08:43 UTC)


TAF: falta

Observaciones y pronósticos meteorológicos de más de 4000 aeropuertos (mensajes METAR y TAF).

Los puntos amarillos y rojos representan las estaciones disponibles.

Ponga el ratón en el punto deseado para ver el nombre de la estación.

Haga clic para ver las observaciones y los pronósticos meteorológicos.

Para cambiar el mapa : haga clic en los botones verdes con una cruz de color negro para hacer un zoom, en el botón verde con un guión para alejar o en las flechas verdes para mapas adyacentes.


METAR-TAF: